Time;durP1;ratioP1;P1;durP2;ratioP2;P2;SDS_P1;SDS_P2;PMS_P1;PMS_P2;Temp;Humidity;BMP_temperature;BMP_pressure;BME280_temperature;BME280_humidity;BME280_pressure;Samples;Min_cycle;Max_cycle;Signal;HPM_P1;HPM_P2
2022/09/03 00:01:49;;;;;;;0.00;0.00;;;;;;;13.90;64.93;100403.84;5073442;28;20531;-71
2022/09/03 00:04:43;;;;;;;0.00;0.00;;;;;;;13.79;65.59;100395.19;5073445;28;20491;-71
2022/09/03 00:07:17;;;;;;;0.00;0.00;;;;;;;13.78;65.57;100384.56;5072807;28;20171;-71
2022/09/03 00:09:48;;;;;;;0.00;0.00;;;;;;;13.54;66.48;100385.19;5073319;28;20215;-71
2022/09/03 00:12:27;;;;;;;0.00;0.00;;;;;;;13.51;66.94;100380.38;5073257;28;20656;-71
2022/09/03 00:15:00;;;;;;;0.00;0.00;;;;;;;13.49;66.96;100377.16;5073087;28;20199;-72
2022/09/03 00:17:34;;;;;;;0.00;0.00;;;;;;;13.16;67.63;100374.22;5073195;28;20179;-72
2022/09/03 00:20:18;;;;;;;0.00;0.00;;;;;;;12.91;69.01;100368.53;5072871;28;20293;-71
2022/09/03 00:22:50;;;;;;;0.00;0.00;;;;;;;12.80;69.28;100370.03;5071825;28;20606;-71
2022/09/03 00:25:24;;;;;;;0.00;0.00;;;;;;;12.96;69.47;100375.78;5072857;28;20170;-72
2022/09/03 00:27:54;;;;;;;0.00;0.00;;;;;;;13.18;68.90;100371.97;5072940;28;20196;-71
2022/09/03 00:30:22;;;;;;;0.00;0.00;;;;;;;13.10;69.05;100368.13;5072862;28;20576;-71
2022/09/03 00:33:08;;;;;;;0.00;0.00;;;;;;;13.04;69.03;100372.19;5072997;28;20194;-72
2022/09/03 00:35:44;;;;;;;0.00;0.00;;;;;;;13.01;69.68;100372.84;5071717;28;20177;-71
2022/09/03 00:38:09;;;;;;;0.00;0.00;;;;;;;13.04;69.10;100367.53;5072847;28;20178;-71
2022/09/03 00:41:13;;;;;;;0.00;0.00;;;;;;;13.14;69.23;100371.00;5072565;28;20202;-71
2022/09/03 00:43:56;;;;;;;0.00;0.00;;;;;;;13.15;69.30;100370.66;5072458;28;20171;-73
2022/09/03 00:46:27;;;;;;;0.00;0.00;;;;;;;13.07;69.12;100363.31;5072769;28;20521;-73
2022/09/03 00:49:14;;;;;;;0.17;0.13;;;;;;;13.08;69.29;100362.97;5072507;28;20175;-74
2022/09/03 00:51:46;;;;;;;0.00;0.00;;;;;;;13.04;69.93;100361.22;5072498;28;20201;-73
2022/09/03 00:54:42;;;;;;;0.00;0.00;;;;;;;12.91;69.81;100356.75;5072184;28;20181;-73
2022/09/03 00:57:34;;;;;;;0.00;0.00;;;;;;;12.88;70.67;100365.66;5072957;28;20269;-73
2022/09/03 01:00:09;;;;;;;0.00;0.00;;;;;;;12.87;70.36;100361.28;5072301;28;20669;-74
2022/09/03 01:02:45;;;;;;;0.00;0.00;;;;;;;12.85;70.36;100361.59;5072342;28;20264;-73
2022/09/03 01:05:52;;;;;;;0.00;0.00;;;;;;;12.85;70.89;100358.06;5071804;28;20166;-74
2022/09/03 01:08:23;;;;;;;0.00;0.00;;;;;;;12.90;70.96;100349.69;5072288;28;20857;-73
2022/09/03 01:11:19;;;;;;;0.00;0.00;;;;;;;12.70;71.58;100354.72;5072278;28;20214;-74
2022/09/03 01:14:07;;;;;;;0.00;0.00;;;;;;;12.69;71.36;100361.34;5071937;28;20567;-73
2022/09/03 01:16:51;;;;;;;0.00;0.00;;;;;;;12.68;71.54;100364.41;5071934;28;20752;-73
2022/09/03 01:19:53;;;;;;;0.00;0.00;;;;;;;12.64;71.57;100358.78;5071279;28;20197;-74
2022/09/03 01:22:40;;;;;;;0.00;0.00;;;;;;;12.74;71.59;100369.41;5072087;28;20182;-74
2022/09/03 01:25:18;;;;;;;0.00;0.00;;;;;;;12.67;71.11;100360.88;5071914;28;20172;-73
2022/09/03 01:28:07;;;;;;;0.00;0.00;;;;;;;12.71;72.11;100367.31;5071844;28;20166;-73
2022/09/03 01:30:39;;;;;;;0.00;0.00;;;;;;;12.69;71.97;100364.09;5071688;28;20533;-73
2022/09/03 01:33:18;;;;;;;0.00;0.00;;;;;;;12.71;71.88;100367.31;5071757;28;20171;-73
2022/09/03 01:35:52;;;;;;;0.00;0.00;;;;;;;12.61;72.10;100362.19;5071764;28;20194;-73
2022/09/03 01:38:32;;;;;;;0.00;0.00;;;;;;;12.69;72.10;100366.81;5071690;28;20262;-74
2022/09/03 01:44:47;;;;;;;0.00;0.00;;;;;;;12.54;72.70;100374.78;5071805;28;20182;-74
2022/09/03 01:47:36;;;;;;;0.00;0.00;;;;;;;12.46;72.81;100365.47;5062615;28;20559;-74
2022/09/03 01:50:08;;;;;;;0.00;0.00;;;;;;;12.48;73.32;100374.16;5071374;28;20524;-73
2022/09/03 01:52:54;;;;;;;0.00;0.00;;;;;;;12.47;73.11;100376.09;5071490;28;20262;-73
2022/09/03 01:55:55;;;;;;;0.00;0.00;;;;;;;12.43;73.42;100374.31;5071124;28;20702;-74
2022/09/03 01:58:30;;;;;;;0.00;0.00;;;;;;;12.34;73.58;100363.38;5071398;28;20282;-74
2022/09/03 02:01:02;;;;;;;0.03;0.03;;;;;;;12.33;73.56;100366.44;5069766;28;20205;-74
2022/09/03 02:03:39;;;;;;;0.00;0.00;;;;;;;12.37;73.96;100375.63;5071095;28;20163;-74
2022/09/03 02:06:06;;;;;;;0.00;0.00;;;;;;;12.27;74.32;100365.00;5070873;28;20185;-75
2022/09/03 02:08:32;;;;;;;0.00;0.00;;;;;;;12.20;74.81;100370.97;5071135;28;20234;-74
2022/09/03 02:11:00;;;;;;;0.30;0.30;;;;;;;12.16;74.84;100370.03;5070747;28;20269;-74
2022/09/03 02:13:29;;;;;;;0.00;0.00;;;;;;;12.15;75.00;100369.22;5070814;28;20171;-74
2022/09/03 02:16:01;;;;;;;0.00;0.00;;;;;;;12.20;74.60;100374.50;5071096;28;20232;-73
2022/09/03 02:18:32;;;;;;;0.00;0.00;;;;;;;12.16;75.20;100372.75;5070996;28;20217;-74
2022/09/03 02:20:59;;;;;;;0.00;0.00;;;;;;;12.17;75.02;100382.59;5070825;28;20214;-75
2022/09/03 02:23:26;;;;;;;0.00;0.00;;;;;;;12.17;75.41;100385.31;5070861;28;20233;-74
2022/09/03 02:25:57;;;;;;;0.00;0.00;;;;;;;12.26;74.67;100375.13;5070745;28;20212;-75
2022/09/03 02:28:23;;;;;;;0.00;0.00;;;;;;;12.30;75.03;100378.06;5070874;28;20637;-74
2022/09/03 02:30:49;;;;;;;0.00;0.00;;;;;;;12.33;74.83;100375.47;5069780;28;20269;-73
2022/09/03 02:33:15;;;;;;;0.00;0.00;;;;;;;12.28;74.03;100369.34;5070862;28;20602;-74
2022/09/03 02:35:42;;;;;;;0.00;0.00;;;;;;;12.15;74.66;100365.63;5070638;28;20171;-74
2022/09/03 02:38:13;;;;;;;0.53;0.53;;;;;;;12.18;74.74;100368.56;5071064;28;20493;-75
2022/09/03 02:40:38;;;;;;;0.00;0.00;;;;;;;12.25;74.97;100368.06;5070406;28;20769;-74
2022/09/03 02:43:08;;;;;;;0.00;0.00;;;;;;;12.27;74.66;100362.25;5070848;28;20253;-75
2022/09/03 02:45:37;;;;;;;0.00;0.00;;;;;;;12.20;74.78;100371.78;5070408;28;20187;-74
2022/09/03 02:48:02;;;;;;;0.00;0.00;;;;;;;12.15;74.70;100368.38;5070695;28;20182;-75
2022/09/03 02:50:28;;;;;;;0.00;0.00;;;;;;;12.11;75.08;100367.41;5070513;28;20217;-75
2022/09/03 02:52:53;;;;;;;0.00;0.00;;;;;;;12.17;74.88;100372.44;5070672;28;20179;-74
2022/09/03 02:55:19;;;;;;;0.00;0.00;;;;;;;11.99;75.20;100362.59;5070227;28;20634;-75
2022/09/03 02:57:45;;;;;;;0.00;0.00;;;;;;;11.90;75.50;100370.81;5070646;28;20184;-75
2022/09/03 03:00:11;;;;;;;0.00;0.00;;;;;;;11.78;75.85;100362.41;5070312;28;20293;-75
2022/09/03 03:02:37;;;;;;;0.00;0.00;;;;;;;11.71;76.20;100364.81;5070377;28;20206;-75
2022/09/03 03:05:03;;;;;;;0.00;0.00;;;;;;;11.71;77.21;100367.53;5070216;28;20255;-74
2022/09/03 03:07:36;;;;;;;0.00;0.00;;;;;;;11.66;77.40;100369.63;5070103;28;20175;-75
2022/09/03 03:10:02;;;;;;;0.00;0.00;;;;;;;11.70;77.24;100360.47;5070688;28;20173;-74
2022/09/03 03:12:30;;;;;;;0.00;0.00;;;;;;;11.69;76.95;100371.72;5070424;28;20166;-75
2022/09/03 03:14:55;;;;;;;0.00;0.00;;;;;;;11.74;77.01;100364.19;5070210;28;20186;-75
2022/09/03 03:17:20;;;;;;;0.00;0.00;;;;;;;11.73;77.31;100368.06;5070348;28;20171;-76
2022/09/03 03:19:46;;;;;;;0.00;0.00;;;;;;;11.78;77.40;100364.34;5069979;28;20618;-76
2022/09/03 03:22:11;;;;;;;0.00;0.00;;;;;;;11.81;77.09;100370.00;5070325;28;20177;-74
2022/09/03 03:24:36;;;;;;;0.00;0.00;;;;;;;11.82;77.32;100366.13;5070137;28;20166;-75
2022/09/03 03:27:06;;;;;;;0.00;0.00;;;;;;;11.83;77.19;100369.69;5070353;28;20167;-75
2022/09/03 03:29:31;;;;;;;0.00;0.00;;;;;;;11.85;76.89;100364.69;5070256;28;20167;-75
2022/09/03 03:31:57;;;;;;;0.00;0.00;;;;;;;11.82;76.97;100365.34;5068930;28;20185;-75
2022/09/03 03:34:22;;;;;;;0.00;0.00;;;;;;;11.83;77.17;100359.53;5069996;28;20197;-75
2022/09/03 03:36:48;;;;;;;0.00;0.00;;;;;;;11.82;77.32;100368.88;5070085;28;20167;-76
2022/09/03 03:39:13;;;;;;;0.00;0.00;;;;;;;11.83;77.18;100367.75;5070002;28;20202;-75
2022/09/03 03:41:38;;;;;;;0.00;0.00;;;;;;;11.87;77.12;100367.94;5071898;28;20174;-75
2022/09/03 03:44:05;;;;;;;0.00;0.00;;;;;;;11.86;77.72;100364.38;5073577;28;20561;-74
2022/09/03 03:46:35;;;;;;;0.00;0.00;;;;;;;11.85;77.32;100367.41;5073805;28;20171;-74
2022/09/03 03:49:01;;;;;;;0.00;0.00;;;;;;;11.85;77.28;100365.50;5073519;28;20171;-74
2022/09/03 03:51:27;;;;;;;0.20;0.20;;;;;;;11.88;77.30;100370.34;5073589;28;20166;-74
2022/09/03 03:53:55;;;;;;;0.00;0.00;;;;;;;11.77;77.54;100363.53;5073469;28;20292;-73
2022/09/03 03:56:21;;;;;;;0.00;0.00;;;;;;;11.81;77.89;100369.19;5073397;28;20664;-72
2022/09/03 03:58:47;;;;;;;0.00;0.00;;;;;;;11.70;78.04;100374.16;5073390;28;20216;-74
2022/09/03 04:01:14;;;;;;;0.00;0.00;;;;;;;11.72;77.98;100376.59;5073333;28;20203;-74
2022/09/03 04:03:40;;;;;;;0.10;0.10;;;;;;;11.68;78.51;100368.19;5073014;28;20206;-74
2022/09/03 04:06:06;;;;;;;0.00;0.00;;;;;;;11.66;78.39;100364.16;5073085;28;20176;-74
2022/09/03 04:08:37;;;;;;;0.00;0.00;;;;;;;11.59;79.01;100379.13;5073236;28;20167;-74
2022/09/03 04:11:05;;;;;;;0.00;0.00;;;;;;;11.52;79.12;100369.78;5073483;28;20232;-74
2022/09/03 04:13:33;;;;;;;0.00;0.00;;;;;;;11.50;79.34;100374.78;5072978;28;20229;-74
2022/09/03 04:16:05;;;;;;;0.00;0.00;;;;;;;11.49;80.07;100371.22;5073467;28;20182;-74
2022/09/03 04:18:32;;;;;;;0.00;0.00;;;;;;;11.53;79.45;100376.84;5073116;28;20653;-75
2022/09/03 04:21:03;;;;;;;0.00;0.00;;;;;;;11.58;79.39;100372.06;5073258;28;20216;-73
2022/09/03 04:23:33;;;;;;;0.00;0.00;;;;;;;11.60;78.87;100378.00;5072919;28;20170;-74
2022/09/03 04:25:59;;;;;;;0.00;0.00;;;;;;;11.62;79.02;100372.22;5072945;28;20179;-75
2022/09/03 04:28:25;;;;;;;0.00;0.00;;;;;;;11.59;79.56;100365.47;5073005;28;20185;-74
2022/09/03 04:30:51;;;;;;;0.00;0.00;;;;;;;11.59;79.40;100367.41;5072838;28;20635;-73
2022/09/03 04:33:16;;;;;;;0.00;0.00;;;;;;;11.51;79.68;100377.19;5072773;28;21004;-75
2022/09/03 04:35:42;;;;;;;0.00;0.00;;;;;;;11.42;79.82;100372.81;5072597;28;20174;-74
2022/09/03 04:38:08;;;;;;;0.00;0.00;;;;;;;11.33;80.58;100361.88;5072473;28;20178;-73
2022/09/03 04:40:33;;;;;;;0.00;0.00;;;;;;;11.27;80.62;100363.91;5072115;28;20199;-73
2022/09/03 04:42:59;;;;;;;0.00;0.00;;;;;;;11.30;80.95;100362.50;5073007;28;20178;-73
2022/09/03 04:45:25;;;;;;;0.00;0.00;;;;;;;11.36;80.45;100366.69;5073027;28;20265;-73
2022/09/03 04:48:03;;;;;;;0.17;0.17;;;;;;;11.33;80.80;100365.41;5074160;28;20171;-80
2022/09/03 04:50:31;;;;;;;0.00;0.00;;;;;;;11.33;80.52;100375.53;5073298;28;20205;-73
2022/09/03 04:53:02;;;;;;;0.00;0.00;;;;;;;11.30;80.65;100376.19;5071771;28;20434;-72
2022/09/03 04:55:33;;;;;;;0.00;0.00;;;;;;;11.30;80.34;100370.72;5072251;28;20232;-73
2022/09/03 04:57:59;;;;;;;0.00;0.00;;;;;;;11.26;80.52;100370.53;5072546;28;20171;-72
2022/09/03 05:00:24;;;;;;;0.20;0.20;;;;;;;11.35;80.53;100372.47;5072272;28;20268;-73
2022/09/03 05:02:50;;;;;;;0.00;0.00;;;;;;;11.25;80.64;100374.38;5072370;28;20219;-71
2022/09/03 05:05:17;;;;;;;0.00;0.00;;;;;;;11.18;81.12;100373.25;5070625;28;20171;-74
2022/09/03 05:07:42;;;;;;;0.00;0.00;;;;;;;11.15;81.60;100373.88;5072548;28;20178;-73
2022/09/03 05:10:12;;;;;;;0.00;0.00;;;;;;;11.14;81.34;100375.81;5072095;28;20166;-73
2022/09/03 05:12:37;;;;;;;0.00;0.00;;;;;;;11.13;82.07;100382.38;5072145;28;20705;-73
2022/09/03 05:15:04;;;;;;;0.00;0.00;;;;;;;11.17;81.54;100366.16;5071866;28;20254;-74
2022/09/03 05:17:30;;;;;;;0.00;0.00;;;;;;;11.19;81.95;100380.31;5071941;28;20511;-74
2022/09/03 05:19:55;;;;;;;0.10;0.10;;;;;;;11.19;82.48;100377.59;5071634;28;20244;-73
2022/09/03 05:22:20;;;;;;;0.00;0.00;;;;;;;11.23;81.51;100376.63;5071843;28;20171;-74
2022/09/03 05:24:49;;;;;;;0.00;0.00;;;;;;;11.25;81.70;100382.59;5071602;28;20645;-74
2022/09/03 05:27:16;;;;;;;0.00;0.00;;;;;;;11.29;81.73;100374.56;5071762;28;20178;-74
2022/09/03 05:29:44;;;;;;;0.00;0.00;;;;;;;11.30;81.30;100370.72;5071704;28;20177;-74
2022/09/03 05:32:11;;;;;;;0.10;0.10;;;;;;;11.29;81.57;100369.09;5071564;28;20177;-73
2022/09/03 05:34:37;;;;;;;0.00;0.00;;;;;;;11.29;81.46;100378.13;5071463;28;20258;-74
2022/09/03 05:37:03;;;;;;;0.00;0.00;;;;;;;11.38;81.53;100374.56;5071544;28;20253;-74
2022/09/03 05:39:28;;;;;;;0.00;0.00;;;;;;;11.46;81.46;100380.09;5071363;28;20190;-74
2022/09/03 05:41:54;;;;;;;0.00;0.00;;;;;;;11.50;80.52;100375.56;5071549;28;20699;-73
2022/09/03 05:44:22;;;;;;;0.00;0.00;;;;;;;11.57;80.40;100381.41;5071236;28;20171;-73
2022/09/03 05:46:49;;;;;;;0.00;0.00;;;;;;;11.62;80.54;100375.75;5071358;28;20175;-74
2022/09/03 05:49:14;;;;;;;0.00;0.00;;;;;;;11.66;80.29;100367.72;5071344;28;20180;-74
2022/09/03 05:51:41;;;;;;;0.00;0.00;;;;;;;11.75;80.05;100368.53;5071557;28;20179;-74
2022/09/03 05:54:07;;;;;;;0.00;0.00;;;;;;;11.83;79.98;100372.41;5069658;28;20538;-74
2022/09/03 05:56:34;;;;;;;0.07;0.07;;;;;;;11.91;79.75;100369.69;5071195;28;20218;-73
2022/09/03 05:59:04;;;;;;;0.00;0.00;;;;;;;12.00;79.79;100371.59;5071189;28;20571;-74
2022/09/03 06:01:41;;;;;;;0.00;0.00;;;;;;;12.04;79.12;100367.94;5070993;28;20546;-73
2022/09/03 06:04:09;;;;;;;0.83;0.83;;;;;;;12.09;79.08;100375.97;5070892;28;20265;-73
2022/09/03 06:06:37;;;;;;;0.00;0.00;;;;;;;12.18;79.13;100373.22;5070987;28;20178;-73
2022/09/03 06:09:09;;;;;;;0.00;0.00;;;;;;;12.26;78.70;100383.34;5071059;28;20239;-74
2022/09/03 06:11:37;;;;;;;0.00;0.00;;;;;;;12.40;78.29;100383.97;5070933;28;20265;-73
2022/09/03 06:14:05;;;;;;;0.00;0.00;;;;;;;12.47;77.75;100384.31;5070892;28;20268;-73
2022/09/03 06:16:33;;;;;;;0.00;0.00;;;;;;;12.54;77.31;100385.72;5070899;28;20179;-73
2022/09/03 06:19:01;;;;;;;0.00;0.00;;;;;;;12.69;77.56;100390.69;5071044;28;20182;-74
2022/09/03 06:21:28;;;;;;;0.00;0.00;;;;;;;12.76;77.37;100380.84;5070724;28;20222;-74
2022/09/03 06:23:55;;;;;;;0.00;0.00;;;;;;;12.86;77.05;100382.41;5070711;28;20182;-74
2022/09/03 06:26:22;;;;;;;0.00;0.00;;;;;;;12.93;76.72;100379.97;5070900;28;20175;-73
2022/09/03 06:28:48;;;;;;;2.50;2.30;;;;;;;13.01;76.60;100381.06;5071187;28;20532;-74
2022/09/03 06:31:16;;;;;;;0.60;0.43;;;;;;;13.18;76.08;100382.94;5070626;28;20660;-72
2022/09/03 06:33:42;;;;;;;2.67;0.30;;;;;;;13.32;75.91;100391.78;5070540;28;20219;-73
2022/09/03 06:36:15;;;;;;;0.00;0.00;;;;;;;13.45;75.86;100385.22;5070806;28;20206;-74
2022/09/03 06:38:42;;;;;;;0.10;0.07;;;;;;;13.54;74.44;100385.19;5070932;28;20561;-73
2022/09/03 06:41:10;;;;;;;0.00;0.00;;;;;;;13.65;74.37;100383.66;5070388;28;20214;-72
2022/09/03 06:43:37;;;;;;;0.00;0.00;;;;;;;13.74;73.96;100395.38;5070426;28;20182;-72
2022/09/03 06:46:04;;;;;;;0.00;0.00;;;;;;;13.90;73.17;100390.13;5070717;28;20174;-74
2022/09/03 06:48:32;;;;;;;0.00;0.00;;;;;;;14.00;72.75;100395.19;5070972;28;20558;-73
2022/09/03 06:51:00;;;;;;;0.00;0.00;;;;;;;14.10;72.43;100386.56;5070466;28;20180;-72
2022/09/03 06:53:31;;;;;;;0.00;0.00;;;;;;;14.21;72.09;100389.69;5070400;28;20651;-72
2022/09/03 06:56:01;;;;;;;0.00;0.00;;;;;;;14.33;72.20;100389.75;5070351;28;20282;-73
2022/09/03 06:58:34;;;;;;;0.00;0.00;;;;;;;14.47;71.74;100398.53;5070586;28;20217;-73
2022/09/03 07:01:09;;;;;;;0.00;0.00;;;;;;;14.63;71.75;100393.19;5070338;28;20260;-75
2022/09/03 07:03:35;;;;;;;0.10;0.10;;;;;;;14.71;71.44;100391.50;5070081;28;20166;-74
2022/09/03 07:06:06;;;;;;;0.00;0.00;;;;;;;14.87;70.62;100404.25;5070164;28;20222;-74
2022/09/03 07:08:33;;;;;;;0.00;0.00;;;;;;;15.00;70.24;100396.00;5070657;28;20175;-74
2022/09/03 07:11:08;;;;;;;0.00;0.00;;;;;;;15.15;69.72;100401.63;5070497;28;20537;-75
2022/09/03 07:13:34;;;;;;;0.57;0.20;;;;;;;15.08;68.93;100397.88;5069988;28;20273;-76
2022/09/03 07:16:05;;;;;;;0.10;0.00;;;;;;;15.07;69.15;100397.06;5071188;28;20218;-74
2022/09/03 07:18:31;;;;;;;0.23;0.23;;;;;;;14.89;68.97;100390.94;5074299;28;20708;-72
2022/09/03 07:21:05;;;;;;;0.00;0.00;;;;;;;14.92;69.31;100389.47;5074171;28;20211;-73
2022/09/03 07:23:31;;;;;;;0.00;0.00;;;;;;;14.95;69.22;100399.00;5073910;28;20182;-74
2022/09/03 07:26:00;;;;;;;0.30;0.00;;;;;;;14.91;69.27;100403.59;5074023;28;20171;-73
2022/09/03 07:28:27;;;;;;;0.00;0.00;;;;;;;14.96;69.00;100408.84;5073952;28;20235;-74
2022/09/03 07:30:59;;;;;;;0.00;0.00;;;;;;;15.07;68.91;100412.78;5073685;28;20526;-73
2022/09/03 07:33:25;;;;;;;0.00;0.00;;;;;;;15.14;68.36;100402.78;5073545;28;20181;-74
2022/09/03 07:35:51;;;;;;;0.00;0.00;;;;;;;15.25;67.95;100413.34;5073507;28;20167;-73
2022/09/03 07:38:18;;;;;;;0.00;0.00;;;;;;;15.34;67.85;100406.59;5073692;28;20181;-74
2022/09/03 07:40:44;;;;;;;0.00;0.00;;;;;;;15.38;67.34;100406.72;5073100;28;20205;-73
2022/09/03 07:43:09;;;;;;;0.00;0.00;;;;;;;15.46;67.44;100394.75;5073281;28;20170;-74
2022/09/03 07:45:37;;;;;;;0.27;0.27;;;;;;;15.50;66.62;100397.66;5073291;28;20174;-73
2022/09/03 07:48:03;;;;;;;0.00;0.00;;;;;;;15.55;67.04;100392.69;5073260;28;20258;-74
2022/09/03 07:50:32;;;;;;;0.00;0.00;;;;;;;15.61;66.32;100388.56;5073193;28;20250;-73
2022/09/03 07:52:58;;;;;;;0.00;0.00;;;;;;;15.71;66.05;100392.81;5073121;28;20174;-74
2022/09/03 07:55:24;;;;;;;0.20;0.13;;;;;;;15.93;66.15;100397.81;5072631;28;20269;-73
2022/09/03 07:57:49;;;;;;;0.50;0.50;;;;;;;16.00;65.33;100399.97;5073039;28;20602;-74
2022/09/03 08:00:16;;;;;;;0.40;0.40;;;;;;;15.95;64.85;100405.75;5073028;28;20559;-74
2022/09/03 08:02:41;;;;;;;0.20;0.20;;;;;;;16.02;64.90;100409.50;5073413;28;20194;-73
2022/09/03 08:05:07;;;;;;;0.13;0.13;;;;;;;16.13;64.84;100409.00;5072706;28;20179;-74
2022/09/03 08:07:32;;;;;;;0.20;0.20;;;;;;;16.17;64.10;100413.47;5072424;28;20213;-75
2022/09/03 08:09:58;;;;;;;0.10;0.10;;;;;;;16.25;64.60;100412.53;5072820;28;20182;-74
2022/09/03 08:12:23;;;;;;;0.87;0.87;;;;;;;16.38;64.40;100407.78;5072860;28;20202;-74
2022/09/03 08:14:48;;;;;;;0.10;0.10;;;;;;;16.54;64.50;100408.63;5072500;28;20171;-74
2022/09/03 08:17:14;;;;;;;0.10;0.10;;;;;;;16.55;63.09;100412.97;5072794;28;20228;-74
2022/09/03 08:19:40;;;;;;;0.37;0.37;;;;;;;16.62;63.00;100418.69;5071139;28;20695;-74
2022/09/03 08:22:06;;;;;;;0.00;0.00;;;;;;;16.74;62.57;100414.28;5072618;28;20178;-74
2022/09/03 08:24:33;;;;;;;0.00;0.00;;;;;;;16.83;62.44;100418.50;5072284;28;20174;-74
2022/09/03 08:26:59;;;;;;;0.20;0.20;;;;;;;16.85;62.45;100420.91;5072532;28;20171;-74
2022/09/03 08:29:26;;;;;;;0.23;0.23;;;;;;;16.91;62.67;100419.47;5072628;28;20347;-73
2022/09/03 08:31:51;;;;;;;0.00;0.00;;;;;;;17.05;62.14;100422.59;5072462;28;20174;-73
2022/09/03 08:34:17;;;;;;;0.60;0.60;;;;;;;17.14;61.35;100411.38;5072147;28;20182;-74
2022/09/03 08:36:43;;;;;;;0.00;0.00;;;;;;;17.32;61.77;100420.91;5071042;28;20177;-75
2022/09/03 08:39:10;;;;;;;0.00;0.00;;;;;;;17.42;60.40;100431.41;5072245;28;20170;-74
2022/09/03 08:41:55;;;;;;;0.00;0.00;;;;;;;17.65;60.33;100423.28;5070967;28;20243;-74
2022/09/03 08:44:41;;;;;;;0.30;0.30;;;;;;;18.05;59.76;100424.97;5072050;28;20656;-74
2022/09/03 08:47:39;;;;;;;0.10;0.10;;;;;;;18.11;58.37;100420.78;5072225;28;20291;-74
2022/09/03 08:50:16;;;;;;;0.13;0.13;;;;;;;18.15;58.35;100421.66;5072253;28;20261;-73
2022/09/03 08:52:53;;;;;;;2.30;1.23;;;;;;;18.00;58.08;100420.53;5072229;28;20175;-74
2022/09/03 08:55:26;;;;;;;0.10;0.10;;;;;;;18.00;57.97;100420.53;5071627;28;20212;-73
2022/09/03 08:58:02;;;;;;;0.00;0.00;;;;;;;18.13;58.34;100424.78;5072221;28;20181;-73
2022/09/03 09:01:02;;;;;;;0.07;0.07;;;;;;;18.33;58.77;100422.00;5071746;28;20255;-73
2022/09/03 09:04:05;;;;;;;0.00;0.00;;;;;;;18.68;56.93;100416.41;5071547;28;20175;-74
2022/09/03 09:06:36;;;;;;;1.57;0.57;;;;;;;18.77;55.49;100421.72;5071573;28;20185;-73
2022/09/03 09:09:10;;;;;;;0.10;0.10;;;;;;;18.84;55.78;100416.31;5071767;28;20773;-73
2022/09/03 09:11:47;;;;;;;0.10;0.10;;;;;;;18.84;53.98;100419.88;5071537;28;20560;-73
2022/09/03 09:14:15;;;;;;;0.20;0.20;;;;;;;18.86;54.13;100406.47;5071525;28;20605;-73
2022/09/03 09:17:03;;;;;;;0.00;0.00;;;;;;;19.00;54.16;100408.69;5071705;28;20167;-73
2022/09/03 09:19:49;;;;;;;0.00;0.00;;;;;;;19.10;53.48;100407.28;5071376;28;20634;-73
2022/09/03 09:22:38;;;;;;;0.27;0.27;;;;;;;19.41;53.55;100407.00;5071574;28;20174;-73
2022/09/03 09:25:15;;;;;;;0.77;0.77;;;;;;;19.48;52.33;100406.31;5071110;28;20175;-73
2022/09/03 09:27:56;;;;;;;0.10;0.10;;;;;;;19.56;52.48;100406.09;5071301;28;20535;-73
2022/09/03 09:30:22;;;;;;;10.20;9.53;;;;;;;19.63;52.62;100396.25;5071120;28;20270;-74
2022/09/03 09:32:47;;;;;;;0.10;0.10;;;;;;;19.83;52.02;100392.22;5071305;28;20245;-73
2022/09/03 09:35:14;;;;;;;0.30;0.30;;;;;;;19.90;50.77;100395.88;5070647;28;20178;-73
2022/09/03 09:38:06;;;;;;;0.90;0.53;;;;;;;19.85;50.11;100400.94;5071237;28;20209;-74
2022/09/03 09:40:34;;;;;;;0.10;0.10;;;;;;;19.98;51.08;100390.44;5068315;28;20313;-74
2022/09/03 09:43:06;;;;;;;0.20;0.20;;;;;;;20.00;49.46;100383.31;5071174;28;20224;-73
2022/09/03 09:45:34;;;;;;;0.00;0.00;;;;;;;20.18;49.90;100383.53;5070900;28;20170;-73
2022/09/03 09:48:01;;;;;;;0.27;0.27;;;;;;;20.25;48.80;100389.16;5071216;28;20262;-74
2022/09/03 09:50:27;;;;;;;0.00;0.00;;;;;;;20.50;48.58;100392.25;5070989;28;20477;-73
2022/09/03 09:53:25;;;;;;;0.10;0.10;;;;;;;20.59;48.28;100380.88;5070960;28;20170;-73
2022/09/03 09:55:53;;;;;;;0.10;0.10;;;;;;;20.40;47.94;100368.75;5062895;28;20665;-73
2022/09/03 09:58:22;;;;;;;0.00;0.00;;;;;;;20.32;48.90;100371.81;5070903;28;20552;-73
2022/09/03 10:00:59;;;;;;;0.80;0.80;;;;;;;20.55;48.50;100378.06;5070862;28;20199;-73
2022/09/03 10:03:26;;;;;;;7.43;4.73;;;;;;;20.48;48.39;100380.75;5070662;28;20661;-73
2022/09/03 10:08:47;;;;;;;0.20;0.20;;;;;;;20.75;48.65;100371.13;5071375;28;20616;-73
2022/09/03 10:11:13;;;;;;;0.43;0.43;;;;;;;20.95;48.15;100374.47;5070759;28;20263;-73
2022/09/03 10:13:45;;;;;;;0.20;0.20;;;;;;;21.14;47.13;100369.88;5070409;28;20269;-73
2022/09/03 10:16:26;;;;;;;0.27;0.27;;;;;;;20.71;45.88;100375.84;5070741;28;20606;-73
2022/09/03 10:19:01;;;;;;;0.20;0.20;;;;;;;20.75;46.30;100367.53;5070679;28;20270;-73
2022/09/03 10:21:37;;;;;;;0.13;0.13;;;;;;;20.75;45.93;100357.22;5070479;28;20218;-73
2022/09/03 10:24:21;;;;;;;0.00;0.00;;;;;;;21.07;46.70;100365.84;5070166;28;20177;-73
2022/09/03 10:26:46;;;;;;;0.00;0.00;;;;;;;20.92;45.81;100369.69;5070923;28;20649;-73
2022/09/03 10:29:19;;;;;;;0.20;0.20;;;;;;;21.05;45.55;100359.88;5070890;28;20178;-73
2022/09/03 10:32:09;;;;;;;0.10;0.10;;;;;;;21.20;45.53;100344.09;5070578;28;20202;-73
2022/09/03 10:34:57;;;;;;;0.10;0.10;;;;;;;21.00;45.56;100353.88;5070141;28;20183;-73
2022/09/03 10:37:33;;;;;;;0.00;0.00;;;;;;;20.99;45.13;100338.41;5069173;28;20805;-73
2022/09/03 10:40:23;;;;;;;0.10;0.10;;;;;;;20.96;45.07;100336.38;5070294;28;20199;-73
2022/09/03 10:43:08;;;;;;;0.00;0.00;;;;;;;21.11;45.06;100340.84;5070305;28;20206;-73
2022/09/03 10:45:46;;;;;;;0.13;0.10;;;;;;;21.39;45.19;100341.09;5070164;28;20174;-73
2022/09/03 10:48:40;;;;;;;0.07;0.07;;;;;;;21.46;45.08;100339.56;5069082;28;20181;-73
2022/09/03 10:51:32;;;;;;;4.37;0.63;;;;;;;21.63;44.24;100344.41;5071522;28;20176;-73
2022/09/03 10:54:23;;;;;;;0.20;0.17;;;;;;;21.52;43.83;100340.78;5074441;28;20183;-73
2022/09/03 10:57:42;;;;;;;0.00;0.00;;;;;;;21.81;44.11;100328.59;5073092;28;20183;-73
2022/09/03 11:00:14;;;;;;;0.30;0.30;;;;;;;21.63;43.64;100345.22;5031585;28;20647;-73
2022/09/03 11:02:45;;;;;;;0.23;0.10;;;;;;;21.67;44.27;100325.75;5031692;28;20244;-73
2022/09/03 11:05:28;;;;;;;0.00;0.00;;;;;;;21.71;44.10;100339.72;5058189;28;20231;-73
2022/09/03 11:08:15;;;;;;;0.00;0.00;;;;;;;21.93;44.56;100331.06;5074269;28;20221;-73
2022/09/03 11:10:47;;;;;;;0.20;0.10;;;;;;;21.72;43.60;100333.75;5072828;28;20637;-73
2022/09/03 11:13:23;;;;;;;0.00;0.00;;;;;;;22.10;44.09;100334.31;5074213;28;20249;-73
2022/09/03 11:15:59;;;;;;;0.00;0.00;;;;;;;22.19;43.26;100327.22;5074999;28;20175;-73
2022/09/03 11:18:33;;;;;;;12.30;0.83;;;;;;;22.11;42.83;100327.56;5074745;28;20668;-73
2022/09/03 11:21:03;;;;;;;0.17;0.17;;;;;;;22.00;42.99;100329.50;5074183;28;20209;-73
2022/09/03 11:23:32;;;;;;;0.00;0.00;;;;;;;21.93;43.50;100319.94;5073546;28;20183;-73
2022/09/03 11:26:04;;;;;;;0.10;0.10;;;;;;;22.30;42.88;100332.81;5073847;28;20170;-73
2022/09/03 11:28:48;;;;;;;0.17;0.17;;;;;;;22.50;42.67;100331.25;5074212;28;20206;-74
2022/09/03 11:31:16;;;;;;;0.00;0.00;;;;;;;22.70;41.93;100333.66;5072557;28;20636;-73
2022/09/03 11:33:50;;;;;;;0.10;0.10;;;;;;;22.47;41.58;100314.56;5073791;28;20204;-73
2022/09/03 11:36:32;;;;;;;0.00;0.00;;;;;;;22.46;42.54;100313.75;5073631;28;20178;-73
2022/09/03 11:38:57;;;;;;;0.67;0.50;;;;;;;22.75;41.69;100317.38;5073497;28;20171;-73
2022/09/03 11:41:26;;;;;;;0.10;0.10;;;;;;;22.55;40.81;100305.00;5073342;28;20252;-73
2022/09/03 11:43:52;;;;;;;0.40;0.40;;;;;;;22.64;41.43;100304.63;5073177;28;20464;-73
2022/09/03 11:46:21;;;;;;;0.30;0.30;;;;;;;22.68;41.75;100297.84;5073361;28;20205;-73
2022/09/03 11:48:51;;;;;;;0.00;0.00;;;;;;;22.79;41.21;100312.59;5073327;28;20175;-73
2022/09/03 11:51:31;;;;;;;8.57;0.83;;;;;;;22.50;41.02;100297.84;5073107;28;20657;-73
2022/09/03 11:54:22;;;;;;;0.90;0.30;;;;;;;22.25;40.94;100302.56;5072895;28;20187;-73